createdAt,value
2022-09-14T00:01:24.719Z,19.70
2022-09-14T00:03:54.801Z,19.70
2022-09-14T00:06:21.544Z,19.70
2022-09-14T00:08:56.641Z,19.70
2022-09-14T00:11:25.417Z,19.70
2022-09-14T00:13:53.225Z,19.70
2022-09-14T00:16:28.955Z,19.70
2022-09-14T00:19:16.055Z,19.70
2022-09-14T00:21:42.779Z,19.70
2022-09-14T00:24:10.982Z,19.60
2022-09-14T00:26:38.154Z,19.60
2022-09-14T00:29:05.742Z,19.70
2022-09-14T00:31:34.656Z,19.60
2022-09-14T00:34:02.716Z,19.60
2022-09-14T00:36:30.521Z,19.60
2022-09-14T00:38:58.035Z,19.60
2022-09-14T00:41:27.636Z,19.60
2022-09-14T00:43:56.599Z,19.60
2022-09-14T00:46:24.758Z,19.50
2022-09-14T00:48:51.968Z,19.50
2022-09-14T00:51:20.100Z,19.50
2022-09-14T00:53:47.560Z,19.50
2022-09-14T00:56:14.760Z,19.50
2022-09-14T00:58:44.075Z,19.50
2022-09-14T01:01:11.085Z,19.50
2022-09-14T01:03:38.104Z,19.50
2022-09-14T01:06:14.277Z,19.40
2022-09-14T01:09:05.995Z,19.50
2022-09-14T01:11:41.620Z,19.40
2022-09-14T01:14:28.012Z,19.40
2022-09-14T01:17:10.285Z,19.40
2022-09-14T01:20:02.492Z,19.40
2022-09-14T01:22:42.862Z,19.40
2022-09-14T01:25:30.042Z,19.30
2022-09-14T01:28:00.838Z,19.30
2022-09-14T01:30:31.881Z,19.30
2022-09-14T01:33:10.264Z,19.30
2022-09-14T01:35:44.361Z,19.30
2022-09-14T01:38:23.423Z,19.20
2022-09-14T01:40:50.755Z,19.30
2022-09-14T01:43:29.720Z,19.20
2022-09-14T01:46:00.897Z,19.20
2022-09-14T01:48:34.022Z,19.20
2022-09-14T01:51:05.593Z,19.20
2022-09-14T01:53:49.532Z,19.20
2022-09-14T01:56:20.280Z,19.20
2022-09-14T01:59:05.591Z,19.20
2022-09-14T02:01:38.125Z,19.20
2022-09-14T02:04:10.132Z,19.20
2022-09-14T02:06:46.908Z,19.20
2022-09-14T02:09:22.700Z,19.10
2022-09-14T02:11:49.510Z,19.20
2022-09-14T02:14:16.325Z,19.10
2022-09-14T02:16:46.093Z,19.10
2022-09-14T02:19:13.863Z,19.10
2022-09-14T02:21:40.948Z,19.10
2022-09-14T02:24:07.740Z,19.10
2022-09-14T02:26:36.208Z,19.10
2022-09-14T02:29:03.700Z,19.10
2022-09-14T02:31:56.243Z,19.10
2022-09-14T02:34:23.581Z,19.10
2022-09-14T02:36:50.092Z,19.10
2022-09-14T02:39:26.932Z,19.00
2022-09-14T02:42:11.634Z,19.00
2022-09-14T02:45:00.849Z,19.00
2022-09-14T02:47:55.417Z,19.00
2022-09-14T02:50:34.170Z,19.00
2022-09-14T02:53:12.885Z,19.00
2022-09-14T02:55:46.274Z,18.90
2022-09-14T02:58:14.418Z,18.90
2022-09-14T03:00:50.836Z,18.90
2022-09-14T03:03:20.487Z,18.90
2022-09-14T03:05:47.631Z,18.90
2022-09-14T03:08:14.742Z,18.90
2022-09-14T03:10:44.596Z,18.90
2022-09-14T03:13:11.644Z,18.90
2022-09-14T03:15:38.831Z,18.90
2022-09-14T03:18:09.988Z,18.90
2022-09-14T03:20:39.534Z,18.90
2022-09-14T03:23:08.941Z,18.80
2022-09-14T03:25:41.280Z,18.90
2022-09-14T03:28:09.024Z,18.80
2022-09-14T03:30:36.022Z,18.80
2022-09-14T03:33:03.281Z,18.80
2022-09-14T03:35:31.426Z,18.80
2022-09-14T03:37:59.514Z,18.80
2022-09-14T03:40:27.312Z,18.80
2022-09-14T03:42:54.143Z,18.80
2022-09-14T03:45:21.728Z,18.70
2022-09-14T03:47:49.070Z,18.80
2022-09-14T03:50:16.888Z,18.70
2022-09-14T03:52:43.459Z,18.70
2022-09-14T03:55:10.911Z,18.70
2022-09-14T03:57:37.707Z,18.70
2022-09-14T04:00:07.061Z,18.70
2022-09-14T04:02:33.725Z,18.70
2022-09-14T04:05:00.359Z,18.70
2022-09-14T04:07:27.011Z,18.70
2022-09-14T04:09:53.584Z,18.70
2022-09-14T04:12:20.123Z,18.70
2022-09-14T04:14:46.691Z,18.70
2022-09-14T04:17:13.460Z,18.60
2022-09-14T04:19:40.886Z,18.60
2022-09-14T04:22:08.980Z,18.60
2022-09-14T04:24:35.725Z,18.60
2022-09-14T04:27:02.276Z,18.60
2022-09-14T04:29:30.483Z,18.60
2022-09-14T04:31:57.992Z,18.60
2022-09-14T04:34:24.685Z,18.60
2022-09-14T04:36:51.238Z,18.60
2022-09-14T04:39:20.816Z,18.60
2022-09-14T04:41:47.504Z,18.60
2022-09-14T04:44:14.564Z,18.60
2022-09-14T04:46:46.186Z,18.60
2022-09-14T04:49:18.691Z,18.50
2022-09-14T04:51:45.312Z,18.60
2022-09-14T04:54:15.263Z,18.50
2022-09-14T04:56:42.158Z,18.50
2022-09-14T04:59:08.868Z,18.50
2022-09-14T05:01:38.366Z,18.50
2022-09-14T05:04:05.973Z,18.50
2022-09-14T05:06:34.319Z,18.50
2022-09-14T05:09:02.838Z,18.50
2022-09-14T05:11:32.065Z,18.40
2022-09-14T05:13:59.686Z,18.50
2022-09-14T05:16:28.707Z,18.50
2022-09-14T05:18:57.608Z,18.50
2022-09-14T05:21:24.903Z,18.50
2022-09-14T05:24:18.429Z,18.40
2022-09-14T05:26:46.274Z,18.40
2022-09-14T05:29:15.112Z,18.40
2022-09-14T05:31:42.008Z,18.40
2022-09-14T05:34:10.312Z,18.40
2022-09-14T05:36:37.851Z,18.40
2022-09-14T05:39:05.631Z,18.40
2022-09-14T05:41:32.280Z,18.40
2022-09-14T05:43:59.941Z,18.40
2022-09-14T05:46:26.988Z,18.40
2022-09-14T05:48:53.715Z,18.30
2022-09-14T05:51:25.244Z,18.40
2022-09-14T05:53:54.510Z,18.30
2022-09-14T05:56:22.308Z,18.40
2022-09-14T05:58:49.465Z,18.30
2022-09-14T06:01:22.435Z,18.30
2022-09-14T06:03:50.216Z,18.30
2022-09-14T06:06:19.275Z,18.30
2022-09-14T06:08:46.673Z,18.30
2022-09-14T06:11:16.310Z,18.30
2022-09-14T06:13:44.387Z,18.30
2022-09-14T06:16:15.154Z,18.30
2022-09-14T06:18:43.686Z,18.30
2022-09-14T06:21:14.996Z,18.40
2022-09-14T06:23:42.077Z,18.30
2022-09-14T06:26:08.770Z,18.30
2022-09-14T06:28:36.057Z,18.30
2022-09-14T06:31:04.477Z,18.30
2022-09-14T06:33:33.371Z,18.30
2022-09-14T06:36:02.593Z,18.30
2022-09-14T06:38:30.171Z,18.30
2022-09-14T06:40:59.520Z,18.30
2022-09-14T06:43:27.984Z,18.30
2022-09-14T06:46:04.569Z,18.30
2022-09-14T06:48:34.279Z,18.30
2022-09-14T06:51:10.282Z,18.30
2022-09-14T06:53:36.904Z,18.30
2022-09-14T06:56:03.627Z,18.30
2022-09-14T06:58:33.661Z,18.30
2022-09-14T07:01:05.128Z,18.30
2022-09-14T07:03:32.132Z,18.30
2022-09-14T07:06:07.330Z,18.30
2022-09-14T07:08:35.427Z,18.30
2022-09-14T07:11:04.368Z,18.30
2022-09-14T07:13:32.232Z,18.30
2022-09-14T07:15:59.283Z,18.30
2022-09-14T07:18:32.857Z,18.30
2022-09-14T07:21:20.558Z,18.30
2022-09-14T07:23:48.190Z,18.30
2022-09-14T07:26:19.076Z,18.30
2022-09-14T07:28:48.716Z,18.30
2022-09-14T07:31:21.075Z,18.30
2022-09-14T07:33:48.698Z,18.30
2022-09-14T07:36:15.694Z,18.30
2022-09-14T07:38:52.282Z,18.30
2022-09-14T07:41:25.501Z,18.20
2022-09-14T07:43:54.278Z,18.30
2022-09-14T07:46:22.164Z,18.20
2022-09-14T07:48:54.153Z,18.30
2022-09-14T07:51:20.720Z,18.30
2022-09-14T07:53:47.329Z,18.30
2022-09-14T07:56:16.537Z,18.30
2022-09-14T07:58:44.169Z,18.30
2022-09-14T08:01:13.842Z,18.30
2022-09-14T08:03:42.863Z,18.30
2022-09-14T08:06:13.014Z,18.30
2022-09-14T08:08:42.825Z,18.30
2022-09-14T08:11:15.103Z,18.30
2022-09-14T08:13:48.471Z,18.30
2022-09-14T08:16:15.546Z,18.30
2022-09-14T08:18:42.163Z,18.30
2022-09-14T08:21:11.162Z,18.30
2022-09-14T08:23:38.683Z,18.30
2022-09-14T08:26:06.313Z,18.30
2022-09-14T08:28:34.012Z,18.30
2022-09-14T08:31:05.492Z,18.30
2022-09-14T08:33:33.907Z,18.40
2022-09-14T08:36:00.949Z,18.40
2022-09-14T08:38:27.798Z,18.40
2022-09-14T08:40:54.880Z,18.40
2022-09-14T08:43:25.319Z,18.40
2022-09-14T08:45:59.095Z,18.40
2022-09-14T08:48:31.209Z,18.40
2022-09-14T08:50:57.800Z,18.40
2022-09-14T08:53:26.520Z,18.40
2022-09-14T08:56:17.307Z,18.40
2022-09-14T08:59:02.497Z,18.40
2022-09-14T09:01:47.788Z,18.40
2022-09-14T09:04:32.431Z,18.40
2022-09-14T09:07:28.591Z,18.40
2022-09-14T09:09:57.495Z,18.50
2022-09-14T09:12:49.462Z,18.40
2022-09-14T09:15:31.127Z,18.50
2022-09-14T09:18:13.044Z,18.50
2022-09-14T09:20:46.174Z,18.50
2022-09-14T09:23:16.003Z,18.50
2022-09-14T09:26:06.476Z,18.60
2022-09-14T09:28:33.664Z,18.60
2022-09-14T09:31:12.676Z,18.60
2022-09-14T09:33:41.701Z,18.60
2022-09-14T09:36:12.821Z,18.60
2022-09-14T09:38:39.376Z,18.70
2022-09-14T09:41:05.967Z,18.70
2022-09-14T09:43:49.248Z,18.70
2022-09-14T09:46:17.844Z,18.80
2022-09-14T09:48:46.939Z,18.80
2022-09-14T09:51:18.876Z,18.80
2022-09-14T09:53:54.060Z,18.80
2022-09-14T09:56:25.502Z,18.80
2022-09-14T09:58:52.536Z,18.80
2022-09-14T10:01:31.367Z,18.90
2022-09-14T10:04:23.085Z,18.90
2022-09-14T10:06:51.920Z,18.90
2022-09-14T10:09:27.554Z,18.90
2022-09-14T10:12:02.892Z,18.90
2022-09-14T10:14:37.964Z,18.90
2022-09-14T10:17:22.383Z,18.90
2022-09-14T10:19:52.384Z,19.00
2022-09-14T10:22:31.142Z,19.00
2022-09-14T10:25:02.016Z,18.90
2022-09-14T10:27:37.832Z,18.90
2022-09-14T10:30:09.857Z,19.00
2022-09-14T10:32:38.682Z,19.00
2022-09-14T10:35:12.413Z,19.00
2022-09-14T10:38:08.539Z,19.00
2022-09-14T10:40:43.914Z,19.00
2022-09-14T10:43:30.382Z,19.00
2022-09-14T10:46:03.437Z,19.00
2022-09-14T10:48:36.347Z,19.10
2022-09-14T10:51:08.920Z,19.10
2022-09-14T10:53:53.902Z,19.10
2022-09-14T10:56:41.595Z,19.10
2022-09-14T10:59:19.820Z,19.10
2022-09-14T11:02:04.713Z,19.10
2022-09-14T11:04:50.584Z,19.10
2022-09-14T11:07:55.224Z,19.10
2022-09-14T11:10:21.709Z,19.10
2022-09-14T11:13:16.230Z,19.10
2022-09-14T11:16:09.842Z,19.10
2022-09-14T11:18:57.016Z,19.10
2022-09-14T11:21:46.886Z,19.10
2022-09-14T11:24:35.240Z,19.10
2022-09-14T11:27:15.579Z,19.10
2022-09-14T11:29:51.856Z,19.20
2022-09-14T11:32:38.093Z,19.20
2022-09-14T11:35:22.301Z,19.20
2022-09-14T11:38:02.611Z,19.20
2022-09-14T11:40:37.288Z,19.20
2022-09-14T11:43:39.455Z,19.20
2022-09-14T11:46:49.645Z,19.20
2022-09-14T11:49:48.665Z,19.20
2022-09-14T11:52:15.259Z,19.20
2022-09-14T11:54:57.177Z,19.20
2022-09-14T11:57:31.881Z,19.20
2022-09-14T11:59:59.860Z,19.20
2022-09-14T12:02:27.508Z,19.20
2022-09-14T12:05:06.726Z,19.20
2022-09-14T12:07:39.340Z,19.20
2022-09-14T12:10:17.667Z,19.30
2022-09-14T12:12:53.158Z,19.20
2022-09-14T12:15:26.060Z,19.30
2022-09-14T12:17:54.126Z,19.40
2022-09-14T12:20:45.016Z,19.40
2022-09-14T12:23:23.616Z,19.40
2022-09-14T12:26:22.564Z,19.40
2022-09-14T12:28:52.427Z,19.50
2022-09-14T12:31:57.199Z,19.50
2022-09-14T12:34:32.159Z,19.50
2022-09-14T12:37:21.500Z,19.60
2022-09-14T12:40:26.171Z,19.60
2022-09-14T12:42:52.798Z,19.60
2022-09-14T12:45:51.833Z,19.60
2022-09-14T12:48:49.430Z,19.70
2022-09-14T12:51:31.594Z,19.70
2022-09-14T12:54:01.366Z,19.70
2022-09-14T12:56:32.087Z,19.70
2022-09-14T12:59:01.432Z,19.80
2022-09-14T13:02:08.373Z,19.90
2022-09-14T13:04:38.120Z,19.90
2022-09-14T13:07:13.116Z,20.00
2022-09-14T13:09:47.010Z,20.00
2022-09-14T13:12:15.164Z,20.10
2022-09-14T13:14:52.973Z,20.10
2022-09-14T13:17:19.676Z,20.10
2022-09-14T13:19:58.430Z,20.20
2022-09-14T13:22:27.388Z,20.20
2022-09-14T13:24:54.161Z,20.30
2022-09-14T13:27:33.842Z,20.30
2022-09-14T13:30:26.283Z,20.40
2022-09-14T13:32:56.414Z,20.40
2022-09-14T13:35:38.723Z,20.50
2022-09-14T13:38:09.064Z,20.50
2022-09-14T13:40:36.004Z,20.60
2022-09-14T13:43:03.004Z,20.60
2022-09-14T13:45:29.945Z,20.70
2022-09-14T13:47:56.835Z,20.70
2022-09-14T13:50:27.224Z,20.70
2022-09-14T13:53:03.403Z,20.80
2022-09-14T13:55:33.295Z,20.80
2022-09-14T13:58:12.043Z,20.80
2022-09-14T14:00:49.309Z,20.90
2022-09-14T14:03:33.531Z,21.00
2022-09-14T14:06:20.538Z,21.10
2022-09-14T14:08:53.271Z,21.10
2022-09-14T14:11:28.017Z,21.20
2022-09-14T14:13:54.534Z,21.20
2022-09-14T14:16:26.561Z,21.20
2022-09-14T14:18:56.037Z,21.30
2022-09-14T14:21:30.468Z,21.30
2022-09-14T14:24:27.759Z,21.40
2022-09-14T14:26:57.754Z,21.40
2022-09-14T14:29:25.836Z,21.50
2022-09-14T14:31:55.725Z,21.60
2022-09-14T14:34:28.080Z,21.60
2022-09-14T14:36:55.796Z,21.70
2022-09-14T14:39:24.376Z,21.70
2022-09-14T14:41:51.954Z,21.70
2022-09-14T14:44:23.000Z,21.70
2022-09-14T14:46:49.686Z,21.80
2022-09-14T14:49:21.873Z,21.80
2022-09-14T14:51:48.574Z,21.80
2022-09-14T14:54:17.840Z,21.90
2022-09-14T14:56:49.387Z,21.90
2022-09-14T14:59:21.928Z,22.00
2022-09-14T15:01:50.172Z,22.00
2022-09-14T15:04:16.833Z,22.10
2022-09-14T15:06:43.799Z,22.10
2022-09-14T15:09:14.997Z,22.10
2022-09-14T15:11:41.686Z,22.10
2022-09-14T15:14:13.682Z,22.10
2022-09-14T15:16:40.331Z,22.20
2022-09-14T15:19:07.233Z,22.10
2022-09-14T15:21:33.964Z,22.10
2022-09-14T15:24:01.265Z,22.10
2022-09-14T15:26:28.181Z,22.10
2022-09-14T15:28:54.812Z,22.10
2022-09-14T15:31:22.065Z,22.20
2022-09-14T15:33:48.696Z,22.10
2022-09-14T15:36:38.803Z,22.10
2022-09-14T15:39:07.164Z,22.10
2022-09-14T15:41:34.032Z,22.10
2022-09-14T15:44:01.063Z,22.10
2022-09-14T15:46:27.808Z,22.00
2022-09-14T15:48:54.394Z,22.00
2022-09-14T15:51:21.017Z,22.00
2022-09-14T15:53:47.899Z,21.90
2022-09-14T15:56:16.192Z,21.90
2022-09-14T15:58:47.816Z,21.90
2022-09-14T16:01:19.484Z,21.90
2022-09-14T16:03:46.192Z,21.90
2022-09-14T16:06:14.187Z,21.90
2022-09-14T16:08:43.008Z,21.90
2022-09-14T16:11:09.618Z,21.80
2022-09-14T16:13:36.429Z,21.80
2022-09-14T16:16:08.667Z,21.80
2022-09-14T16:18:36.311Z,21.80
2022-09-14T16:21:14.232Z,21.80
2022-09-14T16:23:45.073Z,21.80
2022-09-14T16:26:17.985Z,21.80
2022-09-14T16:28:46.263Z,21.80
2022-09-14T16:31:17.043Z,21.70
2022-09-14T16:33:48.855Z,21.70
2022-09-14T16:36:20.900Z,21.70
2022-09-14T16:38:47.741Z,21.70
2022-09-14T16:41:15.885Z,21.70
2022-09-14T16:43:42.442Z,21.70
2022-09-14T16:46:12.680Z,21.70
2022-09-14T16:48:44.254Z,21.70
2022-09-14T16:51:12.188Z,21.70
2022-09-14T16:53:40.729Z,21.60
2022-09-14T16:56:12.953Z,21.60
2022-09-14T16:58:39.524Z,21.60
2022-09-14T17:01:08.447Z,21.60
2022-09-14T17:03:36.025Z,21.60
2022-09-14T17:06:08.186Z,21.50
2022-09-14T17:08:35.856Z,21.50
2022-09-14T17:11:06.633Z,21.50
2022-09-14T17:13:33.393Z,21.40
2022-09-14T17:16:11.654Z,21.40
2022-09-14T17:18:40.811Z,21.40
2022-09-14T17:21:11.738Z,21.40
2022-09-14T17:23:39.749Z,21.30
2022-09-14T17:26:08.861Z,21.30
2022-09-14T17:28:36.163Z,21.20
2022-09-14T17:31:05.085Z,21.20
2022-09-14T17:33:34.215Z,21.10
2022-09-14T17:36:01.289Z,21.10
2022-09-14T17:38:31.426Z,21.10
2022-09-14T17:41:10.784Z,21.10
2022-09-14T17:43:38.983Z,21.00
2022-09-14T17:46:07.619Z,21.00
2022-09-14T17:48:36.881Z,20.90
2022-09-14T17:51:25.255Z,20.90
2022-09-14T17:53:54.321Z,20.80
2022-09-14T17:56:22.745Z,20.80
2022-09-14T17:58:58.372Z,20.70
2022-09-14T18:01:25.111Z,20.70
2022-09-14T18:03:58.831Z,20.70
2022-09-14T18:06:29.748Z,20.60
2022-09-14T18:09:02.396Z,20.60
2022-09-14T18:11:29.831Z,20.50
2022-09-14T18:13:56.673Z,20.50
2022-09-14T18:16:24.614Z,20.40
2022-09-14T18:18:51.630Z,20.40
2022-09-14T18:21:18.796Z,20.30
2022-09-14T18:23:53.292Z,20.20
2022-09-14T18:26:20.818Z,20.20
2022-09-14T18:28:47.713Z,20.20
2022-09-14T18:31:16.766Z,20.10
2022-09-14T18:33:48.631Z,20.10
2022-09-14T18:36:15.399Z,20.10
2022-09-14T18:38:42.904Z,20.00
2022-09-14T18:41:11.561Z,19.90
2022-09-14T18:43:41.864Z,19.90
2022-09-14T18:46:09.065Z,19.90
2022-09-14T18:48:35.775Z,19.80
2022-09-14T18:51:04.905Z,19.80
2022-09-14T18:53:32.305Z,19.70
2022-09-14T18:56:08.716Z,19.70
2022-09-14T18:58:37.343Z,19.70
2022-09-14T19:01:04.665Z,19.70
2022-09-14T19:03:33.201Z,19.60
2022-09-14T19:06:08.136Z,19.60
2022-09-14T19:08:35.394Z,19.60
2022-09-14T19:11:10.956Z,19.50
2022-09-14T19:13:38.396Z,19.40
2022-09-14T19:16:10.744Z,19.40
2022-09-14T19:18:38.079Z,19.40
2022-09-14T19:21:13.991Z,19.40
2022-09-14T19:23:40.992Z,19.30
2022-09-14T19:26:14.933Z,19.20
2022-09-14T19:28:42.184Z,19.20
2022-09-14T19:31:12.073Z,19.20
2022-09-14T19:33:44.487Z,19.20
2022-09-14T19:36:14.744Z,19.10
2022-09-14T19:38:42.285Z,19.10
2022-09-14T19:41:09.005Z,19.10
2022-09-14T19:43:36.298Z,19.10
2022-09-14T19:46:12.047Z,19.00
2022-09-14T19:48:38.997Z,19.00
2022-09-14T19:51:08.041Z,18.90
2022-09-14T19:53:36.065Z,18.90
2022-09-14T19:56:05.402Z,18.90
2022-09-14T19:58:35.748Z,18.80
2022-09-14T20:01:03.077Z,18.80
2022-09-14T20:03:29.876Z,18.80
2022-09-14T20:06:04.767Z,18.80
2022-09-14T20:08:32.930Z,18.80
2022-09-14T20:11:10.936Z,18.70
2022-09-14T20:13:38.557Z,18.70
2022-09-14T20:16:18.536Z,18.70
2022-09-14T20:18:46.765Z,18.70
2022-09-14T20:21:16.973Z,18.60
2022-09-14T20:24:04.279Z,18.60
2022-09-14T20:26:30.849Z,18.60
2022-09-14T20:29:01.885Z,18.60
2022-09-14T20:31:29.667Z,18.60
2022-09-14T20:33:57.145Z,18.60
2022-09-14T20:36:28.653Z,18.50
2022-09-14T20:38:58.553Z,18.50
2022-09-14T20:41:28.476Z,18.50
2022-09-14T20:43:55.439Z,18.50
2022-09-14T20:46:38.411Z,18.50
2022-09-14T20:49:07.841Z,18.50
2022-09-14T20:51:36.118Z,18.40
2022-09-14T20:54:03.136Z,18.40
2022-09-14T20:56:31.658Z,18.40
2022-09-14T20:59:01.323Z,18.40
2022-09-14T21:01:30.811Z,18.30
2022-09-14T21:04:09.619Z,18.30
2022-09-14T21:06:40.044Z,18.30
2022-09-14T21:09:07.832Z,18.20
2022-09-14T21:11:34.418Z,18.20
2022-09-14T21:14:01.603Z,18.20
2022-09-14T21:16:34.715Z,18.20
2022-09-14T21:19:04.033Z,18.10
2022-09-14T21:21:31.417Z,18.10
2022-09-14T21:23:59.670Z,18.10
2022-09-14T21:26:28.897Z,18.00
2022-09-14T21:28:57.559Z,18.10
2022-09-14T21:31:25.594Z,18.00
2022-09-14T21:33:58.743Z,18.00
2022-09-14T21:36:28.851Z,18.00
2022-09-14T21:38:57.761Z,17.90
2022-09-14T21:41:25.786Z,17.90
2022-09-14T21:43:53.464Z,17.90
2022-09-14T21:46:20.162Z,17.90
2022-09-14T21:48:47.236Z,17.80
2022-09-14T21:51:17.007Z,17.80
2022-09-14T21:53:52.910Z,17.80
2022-09-14T21:56:20.903Z,17.80
2022-09-14T21:58:52.550Z,17.70
2022-09-14T22:01:21.478Z,17.70
2022-09-14T22:03:52.887Z,17.70
2022-09-14T22:06:22.161Z,17.70
2022-09-14T22:08:49.761Z,17.70
2022-09-14T22:11:23.461Z,17.70
2022-09-14T22:14:18.008Z,17.70
2022-09-14T22:16:45.128Z,17.60
2022-09-14T22:19:19.218Z,17.60
2022-09-14T22:21:46.285Z,17.60
2022-09-14T22:24:19.284Z,17.50
2022-09-14T22:26:47.060Z,17.50
2022-09-14T22:29:18.667Z,17.50
2022-09-14T22:31:45.757Z,17.40
2022-09-14T22:34:13.574Z,17.40
2022-09-14T22:36:40.286Z,17.40
2022-09-14T22:39:07.803Z,17.40
2022-09-14T22:41:35.172Z,17.30
2022-09-14T22:44:03.103Z,17.30
2022-09-14T22:46:30.086Z,17.30
2022-09-14T22:48:56.820Z,17.20
2022-09-14T22:51:26.066Z,17.20
2022-09-14T22:53:53.012Z,17.20
2022-09-14T22:56:23.827Z,17.20
2022-09-14T22:58:51.154Z,17.10
2022-09-14T23:01:21.386Z,17.10
2022-09-14T23:03:48.437Z,17.10
2022-09-14T23:06:15.542Z,17.10
2022-09-14T23:08:42.208Z,17.10
2022-09-14T23:11:11.140Z,17.10
2022-09-14T23:13:40.105Z,17.10
2022-09-14T23:16:12.036Z,17.10
2022-09-14T23:18:38.933Z,17.00
2022-09-14T23:21:05.663Z,17.00
2022-09-14T23:23:32.402Z,17.00
2022-09-14T23:26:07.699Z,17.00
2022-09-14T23:28:35.168Z,17.00
2022-09-14T23:31:02.214Z,17.00
2022-09-14T23:33:29.723Z,17.00
2022-09-14T23:35:56.402Z,17.00
2022-09-14T23:38:23.907Z,17.00
2022-09-14T23:40:50.829Z,17.00
2022-09-14T23:43:18.403Z,17.00
2022-09-14T23:45:46.459Z,17.00
2022-09-14T23:48:13.919Z,17.00
2022-09-14T23:50:40.530Z,16.90
2022-09-14T23:53:07.344Z,16.90
2022-09-14T23:55:34.201Z,17.00
2022-09-14T23:58:00.777Z,17.00
